Time;durP1;ratioP1;P1;durP2;ratioP2;P2;SDS_P1;SDS_P2;PMS_P1;PMS_P2;Temp;Humidity;BMP_temperature;BMP_pressure;BME280_temperature;BME280_humidity;BME280_pressure;Samples;Min_cycle;Max_cycle;Signal;HPM_P1;HPM_P2
2023/11/26 00:01:04;;;;;;;3.13;2.03;;;;;;;;;;4964998;29;20236;-88
2023/11/26 00:03:42;;;;;;;5.22;2.42;;;;;;;;;;4964706;28;20246;-87
2023/11/26 00:06:11;;;;;;;2.83;2.47;;;;;;;;;;4964386;29;20302;-87
2023/11/26 00:08:54;;;;;;;2.47;2.00;;;;;;;;;;4963759;29;20681;-87
2023/11/26 00:11:33;;;;;;;3.45;2.15;;;;;;;;;;4972837;29;20232;-87
2023/11/26 00:14:14;;;;;;;4.55;2.38;;;;;;;;;;4967365;29;20560;-87
2023/11/26 00:17:24;;;;;;;2.35;1.63;;;1.20;1.00;;;;;;4963860;29;20613;-88
2023/11/26 00:26:31;;;;;;;2.38;2.13;;;;;;;;;;4943573;29;20767;-87
2023/11/26 00:29:03;;;;;;;2.30;1.80;;;;;;;;;;4963170;29;20221;-88
2023/11/26 00:34:29;;;;;;;3.40;3.03;;;;;;;;;;4938849;29;20258;-88
2023/11/26 00:36:56;;;;;;;2.90;1.67;;;;;;;;;;4963520;28;20225;-88
2023/11/26 00:39:27;;;;;;;2.70;1.70;;;;;;;;;;4964072;29;20229;-88
2023/11/26 00:44:47;;;;;;;4.20;1.73;;;;;;;;;;4963429;29;20210;-89
2023/11/26 00:47:36;;;;;;;2.45;2.25;;;;;;;;;;4961682;29;20233;-89
2023/11/26 00:50:08;;;;;;;2.60;2.08;;;;;;;;;;4962399;28;20234;-88
2023/11/26 00:52:47;;;;;;;2.70;1.92;;;;;;;;;;4962881;29;20245;-88
2023/11/26 00:58:32;;;;;;;2.13;1.92;;;;;;;;;;4954900;28;20218;-88
2023/11/26 01:01:29;;;;;;;2.13;1.63;;;1.20;1.00;;;;;;4962360;29;20250;-88
2023/11/26 01:04:14;;;;;;;1.15;1.15;;;;;;;;;;4963033;28;20206;-89
2023/11/26 01:07:02;;;;;;;3.03;1.60;;;;;;;;;;4965982;29;20222;-89
2023/11/26 01:09:40;;;;;;;1.83;1.73;;;;;;;;;;4965895;29;20250;-88
2023/11/26 01:12:13;;;;;;;1.60;1.50;;;;;;;;;;4963859;29;20218;-88
2023/11/26 01:14:43;;;;;;;1.80;1.40;;;;;;;;;;4966844;29;20205;-89
2023/11/26 01:17:13;;;;;;;1.52;1.42;;;;;;;;;;4972171;29;20210;-88
2023/11/26 01:19:47;;;;;;;1.38;1.27;;;;;;;;;;4964300;28;20604;-88
2023/11/26 01:22:26;;;;;;;;;;;;;;;;;;;;;
2023/11/26 01:25:14;;;;;;;4.00;1.77;;;;;;;;;;4980703;28;20197;-89
2023/11/26 01:27:59;;;;;;;;;;;;;;;;;;;;;
2023/11/26 01:30:49;;;;;;;1.35;1.27;;;;;;;;;;4980540;28;20221;-88
2023/11/26 01:33:19;;;;;;;3.03;1.15;;;;;;;;;;4980764;28;20187;-88
2023/11/26 01:38:43;;;;;;;1.58;0.98;;;;;;;;;;4967935;29;20207;-89
2023/11/26 01:41:49;;;;;;;1.00;1.00;;;;;;;;;;4962689;29;20229;-89
2023/11/26 01:44:23;;;;;;;2.25;1.55;;;;;;;;;;4962184;29;20214;-88
2023/11/26 01:47:01;;;;;;;1.38;1.27;;;;;;;;;;4960690;29;20282;-88
2023/11/26 01:59:23;;;;;;;3.03;1.17;;;0.90;1.00;;;;;;4934548;29;20225;-88
2023/11/26 02:01:59;;;;;;;1.30;1.15;;;;;;;;;;4970783;28;20206;-88
2023/11/26 02:04:34;;;;;;;2.72;1.60;;;;;;;;;;4978894;28;20210;-89
2023/11/26 02:07:17;;;;;;;5.78;1.33;;;;;;;;;;4971127;29;20273;-88
2023/11/26 02:13:04;;;;;;;1.55;1.45;;;;;;;;;;4945415;28;20210;-87
2023/11/26 02:15:55;;;;;;;1.90;1.42;;;;;;;;;;4980263;28;20207;-88
2023/11/26 02:22:07;;;;;;;1.30;1.08;;;;;;;;;;4966526;29;20214;-88
2023/11/26 02:25:23;;;;;;;;;;;;;;;;;;;;;
2023/11/26 02:28:05;;;;;;;1.20;1.10;;;;;;;;;;4963465;29;20568;-87
2023/11/26 02:33:21;;;;;;;1.85;1.23;;;;;;;;;;4968414;29;20217;-87
2023/11/26 02:35:55;;;;;;;2.13;1.85;;;;;;;;;;4979575;28;20208;-87
2023/11/26 02:38:34;;;;;;;2.22;1.50;;;;;;;;;;4974969;28;20206;-87
2023/11/26 02:43:50;;;;;;;3.30;1.55;;;;;;;;;;4958824;28;20293;-87
2023/11/26 02:46:52;;;;;;;3.80;1.20;;;0.90;1.00;;;;;;4979158;28;20209;-88
2023/11/26 02:49:22;;;;;;;2.20;1.48;;;;;;;;;;4954651;28;20213;-87
2023/11/26 02:52:00;;;;;;;1.67;1.58;;;;;;;;;;4970246;28;20194;-87
2023/11/26 03:00:28;;;;;;;1.92;1.75;;;;;;;;;;4962986;28;20224;-88
2023/11/26 03:03:19;;;;;;;2.08;1.40;;;0.90;1.00;;;;;;4974094;29;20292;-90
2023/11/26 03:12:56;;;;;;;5.45;2.25;;;;;;;;;;4967734;29;20266;-88
2023/11/26 03:13:12;;;;;;;2.00;1.42;;;0.70;1.00;;;;;;4970625;28;20330;-87
2023/11/26 03:15:53;;;;;;;1.70;1.60;;;;;;;;;;4971212;28;20208;-87
2023/11/26 03:18:27;;;;;;;1.75;1.65;;;;;;;;;;4971039;28;20206;-87
2023/11/26 03:20:58;;;;;;;1.95;1.55;;;;;;;;;;4971474;28;20225;-87
2023/11/26 03:23:36;;;;;;;2.13;1.85;;;;;;;;;;4985239;28;20218;-86
2023/11/26 03:26:06;;;;;;;1.38;1.27;;;;;;;;;;4985841;28;20190;-86
2023/11/26 03:28:34;;;;;;;2.05;1.80;;;;;;;;;;4985836;28;20210;-86
2023/11/26 03:31:03;;;;;;;1.90;1.63;;;;;;;;;;4985580;28;20226;-88
2023/11/26 03:33:34;;;;;;;3.20;1.80;;;;;;;;;;4983685;29;20202;-89
2023/11/26 03:36:23;;;;;;;3.30;1.20;;;;;;;;;;4982307;28;20237;-87
2023/11/26 03:39:18;;;;;;;1.55;1.42;;;;;;;;;;4945686;28;20198;-87
2023/11/26 03:41:55;;;;;;;1.77;1.55;;;;;;;;;;4982636;28;21120;-87
2023/11/26 03:44:31;;;;;;;3.22;2.03;;;;;;;;;;4981531;28;20257;-87
2023/11/26 03:49:46;;;;;;;3.42;2.05;;;;;;;;;;4961501;29;20234;-87
2023/11/26 03:52:23;;;;;;;2.35;2.20;;;;;;;;;;4967059;28;20734;-88
2023/11/26 03:54:50;;;;;;;4.97;2.25;;;;;;;;;;4974553;29;20212;-87
2023/11/26 03:57:28;;;;;;;1.73;1.63;;;;;;;;;;4966231;28;20206;-88
2023/11/26 04:00:01;;;;;;;3.55;2.30;;;;;;;;;;4964459;28;20249;-88
2023/11/26 04:02:35;;;;;;;3.45;2.10;;;;;;;;;;4963423;29;20199;-86
2023/11/26 04:05:10;;;;;;;2.88;2.47;;;;;;;;;;4962833;29;20265;-88
2023/11/26 04:07:38;;;;;;;3.20;1.95;;;;;;;;;;4962950;29;20214;-88
2023/11/26 04:10:11;;;;;;;1.92;1.83;;;;;;;;;;4962231;29;20702;-87
2023/11/26 04:12:43;;;;;;;1.98;1.80;;;;;;;;;;4962485;29;20214;-88
2023/11/26 04:15:19;;;;;;;2.67;2.47;;;;;;;;;;4961923;29;20650;-88
2023/11/26 04:17:52;;;;;;;6.00;1.95;;;;;;;;;;4962294;29;20624;-87
2023/11/26 04:20:26;;;;;;;2.92;2.25;;;;;;;;;;4966784;29;20262;-87
2023/11/26 04:22:57;;;;;;;2.30;1.70;;;;;;;;;;4965022;29;20479;-88
2023/11/26 04:25:42;;;;;;;2.28;1.60;;;;;;;;;;4962815;29;20191;-87
2023/11/26 04:28:20;;;;;;;2.22;2.03;;;;;;;;;;4962432;28;20230;-87
2023/11/26 04:43:07;;;;;;;1.90;1.60;;;;;;;;;;4962396;28;20219;-87
2023/11/26 04:45:34;;;;;;;2.85;2.30;;;;;;;;;;4964747;29;20217;-87
2023/11/26 04:48:04;;;;;;;2.08;1.90;;;;;;;;;;4971465;29;20230;-86
2023/11/26 04:50:51;;;;;;;2.47;2.28;;;;;;;;;;4981104;28;20233;-86
2023/11/26 04:53:20;;;;;;;2.92;2.67;;;;;;;;;;4967739;29;20183;-86
2023/11/26 04:55:48;;;;;;;3.13;2.17;;;;;;;;;;4963045;28;20669;-87
2023/11/26 04:58:15;;;;;;;2.97;2.10;;;0.70;1.00;;;;;;4962398;29;20207;-88
2023/11/26 05:00:41;;;;;;;2.17;2.00;;;1.30;1.00;;;;;;4962241;29;20595;-88
2023/11/26 05:03:08;;;;;;;2.40;2.20;;;1.30;1.00;;;;;;4962027;29;20217;-88
2023/11/26 05:05:37;;;;;;;2.30;2.20;;;1.50;16.30;;;;;;4961027;29;20199;-88
2023/11/26 05:08:05;;;;;;;2.13;1.63;;;1.10;1.00;;;;;;4961955;29;20554;-88
2023/11/26 05:10:32;;;;;;;2.95;2.75;;;0.90;1.00;;;;;;4968324;29;20289;-87
2023/11/26 05:12:59;;;;;;;1.73;1.63;;;;;;;;;;4965872;28;20202;-88
2023/11/26 05:15:26;;;;;;;2.35;2.20;;;0.80;1.00;;;;;;4973659;28;20237;-87
2023/11/26 05:17:53;;;;;;;4.07;2.17;;;0.60;1.00;;;;;;4961628;29;20198;-87
2023/11/26 05:20:22;;;;;;;2.33;2.05;;;0.70;1.00;;;;;;4960511;29;20286;-88
2023/11/26 05:22:50;;;;;;;2.13;1.83;;;0.80;1.00;;;;;;4961711;29;20206;-88
2023/11/26 05:25:18;;;;;;;2.40;2.20;;;;;;;;;;4961176;29;20599;-87
2023/11/26 05:27:45;;;;;;;2.17;1.77;;;1.20;1.00;;;;;;4962774;29;20222;-87
2023/11/26 05:30:13;;;;;;;2.38;2.17;;;;;;;;;;4962545;28;20640;-88
2023/11/26 05:32:40;;;;;;;1.65;1.55;;;1.10;1.00;;;;;;4962044;29;20213;-87
2023/11/26 05:35:12;;;;;;;2.50;2.30;;;0.90;1.00;;;;;;4961134;29;20682;-87
2023/11/26 05:37:39;;;;;;;2.28;2.05;;;1.00;1.00;;;;;;4963036;28;20546;-86
2023/11/26 05:40:11;;;;;;;2.33;2.13;;;0.90;99.90;;;;;;4978169;28;20301;-86
2023/11/26 05:42:39;;;;;;;2.22;1.90;;;;;;;;;;4976013;28;20250;-85
2023/11/26 05:45:06;;;;;;;3.25;2.70;;;1.00;99.90;;;;;;4978993;29;20229;-83
2023/11/26 05:47:34;;;;;;;3.10;2.10;;;;;;;;;;4980555;28;20190;-86
2023/11/26 05:50:02;;;;;;;2.47;2.28;;;;;;;;;;4966765;29;20222;-87
2023/11/26 05:52:30;;;;;;;2.55;1.98;;;;;;;;;;4963585;29;20203;-87
2023/11/26 05:54:57;;;;;;;1.98;1.88;;;;;;;;;;4961156;29;20215;-87
2023/11/26 05:57:44;;;;;;;3.38;2.33;;;;;;;;;;4970913;29;20190;-87
2023/11/26 06:00:36;;;;;;;3.28;1.52;;;;;;;;;;4977541;28;20237;-87
2023/11/26 06:03:11;;;;;;;3.30;2.03;;;;;;;;;;4961368;29;20191;-88
2023/11/26 06:05:41;;;;;;;4.15;2.28;;;;;;;;;;4963254;29;20198;-87
2023/11/26 06:08:11;;;;;;;2.95;2.35;;;;;;;;;;4960346;28;20305;-87
2023/11/26 06:10:58;;;;;;;2.75;2.42;;;;;;;;;;4963777;29;20233;-88
2023/11/26 06:13:37;;;;;;;3.85;2.38;;;;;;;;;;4979827;28;20198;-86
2023/11/26 06:16:11;;;;;;;5.03;2.78;;;;;;;;;;4979936;28;20196;-86
2023/11/26 06:18:50;;;;;;;2.65;2.45;;;;;;;;;;4979476;28;20660;-87
2023/11/26 06:21:19;;;;;;;3.35;3.05;;;;;;;;;;4968279;29;20651;-87
2023/11/26 06:23:51;;;;;;;3.90;2.60;;;;;;;;;;4964106;28;20212;-83
2023/11/26 06:26:22;;;;;;;4.72;3.15;;;;;;;;;;4972123;28;20237;-86
2023/11/26 06:28:53;;;;;;;4.13;2.97;;;;;;;;;;4959281;29;20277;-87
2023/11/26 06:31:21;;;;;;;6.32;4.15;;;;;;;;;;4960083;29;20230;-87
2023/11/26 06:33:52;;;;;;;3.55;3.15;;;;;;;;;;4959001;29;20343;-87
2023/11/26 06:36:23;;;;;;;3.85;3.25;;;;;;;;;;4963353;29;20282;-87
2023/11/26 06:39:06;;;;;;;4.45;3.13;;;0.80;1.00;;;;;;4962446;29;20226;-87
2023/11/26 06:44:36;;;;;;;3.45;2.60;;;;;;;;;;4956927;28;20221;-87
2023/11/26 06:47:03;;;;;;;4.38;2.80;;;;;;;;;;4959408;29;20289;-87
2023/11/26 06:49:30;;;;;;;5.25;2.55;;;;;;;;;;4958701;29;20720;-87
2023/11/26 06:52:07;;;;;;;2.80;2.50;;;;;;;;;;4958459;29;20248;-87
2023/11/26 06:54:38;;;;;;;6.45;2.40;;;;;;;;;;4959128;29;20216;-87
2023/11/26 06:57:10;;;;;;;2.78;2.45;;;;;;;;;;4958916;29;20182;-87
2023/11/26 06:59:49;;;;;;;2.70;2.50;;;;;;;;;;4958545;29;20244;-87
2023/11/26 07:02:20;;;;;;;4.25;3.42;;;;;;;;;;4959351;28;20210;-87
2023/11/26 07:04:59;;;;;;;3.47;2.83;;;;;;;;;;4960528;29;20214;-87
2023/11/26 07:08:21;;;;;;;4.07;3.50;;;0.50;99.90;;;;;;4959508;29;20210;-88
2023/11/26 07:10:54;;;;;;;3.60;2.97;;;;;;;;;;4937699;28;20232;-88
2023/11/26 07:13:51;;;;;;;;;;;;;;;;;;;;;
2023/11/26 07:16:27;;;;;;;4.47;4.05;;;;;;;;;;4959938;28;20202;-87
2023/11/26 07:19:18;;;;;;;3.90;3.28;;;0.50;1.00;;;;;;4978681;29;20238;-87
2023/11/26 07:21:57;;;;;;;3.10;2.90;;;;;;;;;;4961659;28;20218;-85
2023/11/26 07:24:30;;;;;;;3.15;2.92;;;0.40;99.90;;;;;;4967848;29;20250;-87
2023/11/26 07:27:06;;;;;;;4.13;3.40;;;;;;;;;;4969035;29;20206;-87
2023/11/26 07:29:40;;;;;;;6.55;3.70;;;;;;;;;;4970511;29;20296;-87
2023/11/26 07:32:37;;;;;;;3.95;3.20;;;;;;;;;;4967903;29;20221;-86
2023/11/26 07:35:25;;;;;;;3.47;3.17;;;;;;;;;;4946995;28;20194;-87
2023/11/26 07:38:04;;;;;;;4.22;3.75;;;;;;;;;;4978352;28;20198;-88
2023/11/26 07:40:41;;;;;;;3.55;3.15;;;;;;;;;;4970247;29;20298;-87
2023/11/26 07:43:38;;;;;;;5.97;4.00;;;;;;;;;;4965092;29;20209;-88
2023/11/26 07:46:12;;;;;;;9.50;3.35;;;;;;;;;;4965634;29;20257;-88
2023/11/26 07:48:40;;;;;;;4.80;3.42;;;;;;;;;;4965816;29;20216;-88
2023/11/26 07:51:13;;;;;;;3.78;3.55;;;;;;;;;;4965186;28;20257;-88
2023/11/26 07:53:47;;;;;;;3.28;2.97;;;;;;;;;;4967501;29;20206;-87
2023/11/26 07:56:16;;;;;;;4.63;3.00;;;;;;;;;;4982618;28;20201;-84
2023/11/26 07:58:46;;;;;;;3.67;3.35;;;;;;;;;;4982455;28;20198;-85
2023/11/26 08:01:24;;;;;;;3.60;2.40;;;;;;;;;;4979663;28;20233;-88
2023/11/26 08:06:44;;;;;;;3.80;3.25;;;;;;;;;;4965981;29;20292;-89
2023/11/26 08:09:28;;;;;;;5.80;3.83;;;;;;;;;;4966371;29;20222;-87
2023/11/26 08:12:04;;;;;;;3.58;3.28;;;;;;;;;;4965023;29;20266;-87
2023/11/26 08:14:35;;;;;;;3.40;3.10;;;;;;;;;;4964879;28;20213;-88
2023/11/26 08:17:07;;;;;;;3.17;2.78;;;;;;;;;;4968087;29;20202;-87
2023/11/26 08:19:40;;;;;;;6.95;3.53;;;;;;;;;;4982160;28;20202;-84
2023/11/26 08:22:48;;;;;;;3.95;2.80;;;0.40;1.00;;;;;;4982438;28;20237;-83
2023/11/26 08:25:33;;;;;;;3.50;2.97;;;;;;;;;;4956395;28;20186;-82
2023/11/26 08:28:02;;;;;;;3.78;3.00;;;;;;;;;;4966405;29;20213;-86
2023/11/26 08:30:39;;;;;;;6.72;3.78;;;;;;;;;;4981526;28;20230;-86
2023/11/26 08:33:09;;;;;;;4.55;2.90;;;;;;;;;;4979591;28;20202;-88
2023/11/26 08:35:50;;;;;;;3.63;3.22;;;;;;;;;;4969396;29;20209;-87
2023/11/26 08:38:21;;;;;;;3.33;3.03;;;;;;;;;;4968454;29;20198;-86
2023/11/26 08:43:34;;;;;;;2.95;2.50;;;;;;;;;;4971431;29;20221;-86
2023/11/26 08:46:03;;;;;;;4.07;3.40;;;;;;;;;;4980992;28;20191;-85
2023/11/26 08:48:45;;;;;;;3.63;2.92;;;0.50;99.90;;;;;;4972508;28;20202;-87
2023/11/26 08:51:19;;;;;;;3.65;3.25;;;;;;;;;;4963757;29;20222;-87
2023/11/26 08:53:46;;;;;;;3.30;3.00;;;;;;;;;;4963848;29;20550;-86
2023/11/26 08:56:18;;;;;;;2.60;2.40;;;;;;;;;;4965614;29;20262;-88
2023/11/26 08:58:48;;;;;;;3.00;2.60;;;;;;;;;;4965183;28;20213;-86
2023/11/26 09:01:15;;;;;;;3.13;2.90;;;;;;;;;;4966325;29;20345;-87
2023/11/26 09:03:44;;;;;;;3.72;2.97;;;;;;;;;;4964901;29;20704;-87
2023/11/26 09:06:18;;;;;;;4.35;3.22;;;;;;;;;;4966241;29;20210;-87
2023/11/26 09:08:52;;;;;;;3.03;2.72;;;;;;;;;;4966325;29;20219;-87
2023/11/26 09:11:35;;;;;;;4.63;2.33;;;;;;;;;;4964123;29;20661;-88
2023/11/26 09:14:15;;;;;;;3.15;2.75;;;;;;;;;;4963589;28;20202;-86
2023/11/26 09:16:44;;;;;;;3.95;2.72;;;;;;;;;;4963578;29;20210;-88
2023/11/26 09:19:23;;;;;;;2.67;2.47;;;;;;;;;;4963349;28;20209;-89
2023/11/26 09:21:53;;;;;;;2.75;2.55;;;;;;;;;;4964461;28;20210;-86
2023/11/26 09:24:22;;;;;;;4.05;2.80;;;;;;;;;;4967306;29;20220;-86
2023/11/26 09:26:58;;;;;;;1.95;1.85;;;;;;;;;;4972754;29;20270;-88
2023/11/26 09:29:30;;;;;;;4.25;2.90;;;;;;;;;;4969343;28;20254;-88
2023/11/26 09:32:04;;;;;;;3.75;2.85;;;;;;;;;;4980232;28;20198;-86
2023/11/26 09:34:32;;;;;;;2.80;2.60;;;;;;;;;;4975963;28;20198;-87
2023/11/26 09:40:19;;;;;;;3.90;2.35;;;;;;;;;;4962141;28;20592;-85
2023/11/26 09:42:50;;;;;;;3.15;2.67;;;0.80;1.00;;;;;;4963641;29;20301;-85
2023/11/26 09:45:19;;;;;;;2.58;2.38;;;0.80;99.90;;;;;;4964461;29;20190;-85
2023/11/26 09:47:46;;;;;;;3.20;3.00;;;;;;;;;;4962398;29;20566;-86
2023/11/26 09:50:13;;;;;;;4.40;2.35;;;1.30;99.90;;;;;;4961900;29;20297;-86
2023/11/26 09:52:41;;;;;;;1.98;1.88;;;1.00;1.00;;;;;;4963221;29;20297;-87
2023/11/26 09:55:09;;;;;;;3.65;3.00;;;1.10;1.00;;;;;;4961838;29;20202;-86
2023/11/26 09:57:38;;;;;;;2.92;2.60;;;1.00;99.90;;;;;;4965808;28;20206;-86
2023/11/26 10:00:10;;;;;;;5.82;3.00;;;1.30;1.00;;;;;;4971507;29;20310;-86
2023/11/26 10:02:38;;;;;;;4.20;3.80;;;0.90;99.90;;;;;;4975184;29;20190;-86
2023/11/26 10:05:06;;;;;;;2.92;2.72;;;1.20;99.90;;;;;;4973229;29;20226;-86
2023/11/26 10:07:35;;;;;;;2.35;2.05;;;1.30;1.00;;;;;;4969327;29;20221;-87
2023/11/26 10:10:07;;;;;;;3.78;2.53;;;1.30;1.00;;;;;;4963612;29;20241;-86
2023/11/26 10:12:49;;;;;;;3.53;2.60;;;0.90;99.90;;;;;;4962739;29;20701;-86
2023/11/26 10:15:17;;;;;;;2.75;2.42;;;;;;;;;;4963682;29;20341;-86
2023/11/26 10:17:59;;;;;;;3.33;3.03;;;1.20;1.00;;;;;;4965936;29;20217;-86
2023/11/26 10:20:27;;;;;;;5.88;3.65;;;;;;;;;;4976210;29;20226;-84
2023/11/26 10:22:54;;;;;;;3.25;2.75;;;1.50;99.90;;;;;;4977588;29;20221;-86
2023/11/26 10:25:21;;;;;;;4.50;3.13;;;1.30;99.90;;;;;;4966347;29;20290;-86
2023/11/26 10:27:49;;;;;;;2.38;2.17;;;1.10;99.90;;;;;;4962969;29;20245;-86
2023/11/26 10:30:25;;;;;;;2.75;2.55;;;1.30;1.00;;;;;;4962509;29;20230;-87
2023/11/26 10:32:58;;;;;;;4.95;2.67;;;1.10;99.90;;;;;;4962545;29;20672;-87
2023/11/26 10:35:25;;;;;;;4.15;2.95;;;1.10;99.90;;;;;;4961480;29;20191;-87
2023/11/26 10:37:53;;;;;;;2.67;2.25;;;;;;;;;;4962941;29;20202;-86
2023/11/26 10:40:20;;;;;;;4.00;2.17;;;;;;;;;;4961620;29;20721;-86
2023/11/26 10:42:49;;;;;;;2.40;2.15;;;1.10;99.90;;;;;;4967349;29;20274;-85
2023/11/26 10:45:18;;;;;;;3.00;2.28;;;1.10;1.00;;;;;;4973121;29;20214;-85
2023/11/26 10:47:47;;;;;;;4.13;2.78;;;1.20;1.00;;;;;;4964568;29;20198;-87
2023/11/26 10:50:17;;;;;;;3.40;2.67;;;1.50;99.90;;;;;;4962394;29;20665;-86
2023/11/26 10:52:51;;;;;;;6.47;2.70;;;1.30;99.90;;;;;;4963221;29;20193;-85
2023/11/26 10:55:24;;;;;;;5.55;3.15;;;1.20;1.00;;;;;;4965018;29;20214;-86
2023/11/26 10:57:57;;;;;;;2.88;2.55;;;1.50;99.90;;;;;;4963675;29;20190;-87
2023/11/26 11:00:28;;;;;;;3.28;2.45;;;1.60;99.90;;;;;;4963432;29;20283;-86
2023/11/26 11:02:55;;;;;;;2.13;1.95;;;1.80;99.90;;;;;;4962164;29;20190;-86
2023/11/26 11:05:24;;;;;;;1.98;1.67;;;1.50;99.90;;;;;;4961639;29;20209;-86
2023/11/26 11:07:52;;;;;;;2.10;1.90;;;1.40;1.00;;;;;;4961932;29;20228;-85
2023/11/26 11:10:24;;;;;;;2.40;2.17;;;1.40;99.90;;;;;;4964173;28;20229;-84
2023/11/26 11:12:57;;;;;;;1.90;1.80;;;1.40;1.00;;;;;;4964102;29;20220;-86
2023/11/26 11:15:25;;;;;;;2.00;1.88;;;1.50;1.00;;;;;;4967499;29;20564;-84
2023/11/26 11:17:52;;;;;;;2.83;2.03;;;;;;;;;;4978966;29;20206;-83
2023/11/26 11:20:19;;;;;;;2.40;2.13;;;1.70;99.90;;;;;;4978324;29;20223;-84
2023/11/26 11:22:47;;;;;;;1.90;1.80;;;1.50;1.00;;;;;;4978377;29;20275;-84
2023/11/26 11:25:16;;;;;;;2.45;2.25;;;1.20;99.90;;;;;;4974545;29;20207;-86
2023/11/26 11:27:51;;;;;;;2.42;2.15;;;1.40;1.00;;;;;;4970223;29;20244;-86
2023/11/26 11:30:55;;;;;;;3.25;1.90;;;1.30;1.00;;;;;;4969343;29;20229;-86
2023/11/26 11:33:22;;;;;;;3.65;2.10;;;1.20;99.90;;;;;;4968412;29;20292;-86
2023/11/26 11:35:50;;;;;;;3.17;2.60;;;1.20;99.90;;;;;;4967299;29;20206;-85
2023/11/26 11:38:20;;;;;;;2.55;2.05;;;1.30;1.00;;;;;;4966440;29;20736;-86
2023/11/26 11:41:14;;;;;;;2.50;2.30;;;1.50;1.00;;;;;;4965665;29;20238;-85
2023/11/26 11:43:42;;;;;;;2.30;2.10;;;1.60;1.00;;;;;;4920467;28;20212;-84
2023/11/26 11:46:46;;;;;;;3.63;2.88;;;1.70;1.00;;;;;;4982503;29;20230;-85
2023/11/26 11:49:13;;;;;;;4.75;3.20;;;;;;;;;;4967815;29;20194;-85
2023/11/26 11:51:42;;;;;;;3.85;2.67;;;1.80;1.00;;;;;;4966630;29;20238;-84
2023/11/26 11:54:40;;;;;;;2.30;1.80;;;1.70;1.00;;;;;;4965072;29;20202;-85
2023/11/26 11:57:15;;;;;;;5.82;2.65;;;2.00;1.00;;;;;;4970960;29;20263;-84
2023/11/26 11:59:43;;;;;;;2.88;2.40;;;2.20;99.90;;;;;;4970784;29;20700;-85
2023/11/26 12:02:12;;;;;;;2.13;1.80;;;1.90;1.00;;;;;;4966949;29;20717;-86
2023/11/26 12:04:46;;;;;;;2.65;2.05;;;2.10;1.00;;;;;;4966095;29;20593;-86
2023/11/26 12:07:13;;;;;;;3.50;2.45;;;;;;;;;;4966594;29;20221;-85
2023/11/26 12:09:42;;;;;;;3.35;2.03;;;2.20;1.00;;;;;;4971189;29;20262;-84
2023/11/26 12:12:10;;;;;;;2.33;1.83;;;2.00;1.00;;;;;;4978752;29;20224;-84
2023/11/26 12:14:37;;;;;;;2.45;2.25;;;2.30;99.90;;;;;;4979097;29;20506;-85
2023/11/26 12:17:08;;;;;;;2.88;2.50;;;2.00;1.00;;;;;;4975549;29;20202;-85
2023/11/26 12:19:37;;;;;;;4.50;2.00;;;1.80;1.00;;;;;;4974847;29;20249;-85
2023/11/26 12:22:04;;;;;;;2.65;2.45;;;1.70;1.00;;;;;;4974754;28;20262;-85
2023/11/26 12:24:32;;;;;;;12.40;8.38;;;1.60;99.90;;;;;;4969413;29;20233;-86
2023/11/26 12:27:00;;;;;;;4.00;2.90;;;1.60;1.00;;;;;;4967989;29;20206;-87
2023/11/26 12:29:28;;;;;;;2.58;2.40;;;;;;;;;;4969601;29;20226;-86
2023/11/26 12:31:56;;;;;;;2.67;2.28;;;2.00;99.90;;;;;;4967986;29;20685;-87
2023/11/26 12:34:23;;;;;;;1.83;1.73;;;;;;;;;;4968791;29;20218;-86
2023/11/26 12:36:51;;;;;;;7.28;2.65;;;1.70;1.00;;;;;;4974817;29;20305;-86
2023/11/26 12:39:19;;;;;;;3.08;2.28;;;1.10;1.00;;;;;;4970458;28;20211;-86
2023/11/26 12:41:50;;;;;;;1.88;1.67;;;2.50;1.00;;;;;;4974399;29;20202;-85
2023/11/26 12:44:20;;;;;;;2.30;2.08;;;2.00;1.00;;;;;;4970553;29;20209;-86
2023/11/26 12:46:47;;;;;;;2.35;2.05;;;;;;;;;;4963365;29;20191;-87
2023/11/26 12:49:15;;;;;;;2.75;2.10;;;1.60;1.00;;;;;;4962962;29;20198;-87
2023/11/26 12:51:43;;;;;;;3.10;2.30;;;;;;;;;;4965872;29;20233;-85
2023/11/26 12:54:10;;;;;;;3.60;1.70;;;;;;;;;;4964845;29;20262;-86
2023/11/26 12:56:38;;;;;;;3.10;2.78;;;1.10;1.00;;;;;;4972435;29;20207;-86
2023/11/26 12:59:05;;;;;;;6.10;2.20;;;;;;;;;;4976295;29;20202;-84
2023/11/26 13:01:35;;;;;;;2.38;2.17;;;1.70;1.00;;;;;;4965902;29;20253;-87
2023/11/26 13:04:05;;;;;;;3.05;2.75;;;1.80;1.00;;;;;;4963230;28;20238;-87
2023/11/26 13:06:33;;;;;;;3.20;1.90;;;;;;;;;;4963753;29;20443;-86
2023/11/26 13:09:06;;;;;;;2.45;2.10;;;;;;;;;;4964106;29;20927;-86
2023/11/26 13:11:36;;;;;;;5.55;3.00;;;;;;;;;;4967441;29;20453;-88
2023/11/26 13:14:05;;;;;;;6.32;3.60;;;1.60;99.90;;;;;;4966165;29;20225;-87
2023/11/26 13:16:33;;;;;;;5.03;3.20;;;1.60;99.90;;;;;;4964887;29;20237;-86
2023/11/26 13:19:02;;;;;;;2.80;2.45;;;2.10;99.90;;;;;;4962884;29;20210;-86
2023/11/26 13:21:29;;;;;;;3.63;2.40;;;1.70;99.90;;;;;;4971206;29;20555;-87
2023/11/26 13:23:57;;;;;;;2.05;1.95;;;2.20;99.90;;;;;;4968202;29;20253;-86
2023/11/26 13:26:24;;;;;;;3.80;2.60;;;1.90;1.00;;;;;;4964912;29;20249;-87
2023/11/26 13:28:54;;;;;;;2.45;2.20;;;;;;;;;;4965513;29;20206;-86
2023/11/26 13:31:24;;;;;;;4.20;3.85;;;;;;;;;;4966315;29;20688;-86
2023/11/26 13:33:56;;;;;;;4.65;2.25;;;;;;;;;;4965052;28;20194;-85
2023/11/26 13:36:23;;;;;;;3.03;2.55;;;;;;;;;;4963596;29;20191;-87
2023/11/26 13:38:50;;;;;;;3.47;2.40;;;;;;;;;;4961332;29;20229;-87
2023/11/26 13:41:22;;;;;;;3.20;2.63;;;;;;;;;;4961597;29;20309;-87
2023/11/26 13:43:49;;;;;;;4.07;3.78;;;;;;;;;;4963092;29;20230;-86
2023/11/26 13:46:16;;;;;;;3.28;2.58;;;;;;;;;;4964560;29;20207;-86
2023/11/26 13:48:43;;;;;;;2.10;2.00;;;;;;;;;;4963633;29;20269;-87
2023/11/26 13:51:13;;;;;;;4.10;2.83;;;2.30;1.00;;;;;;4961894;29;20670;-87
2023/11/26 13:53:40;;;;;;;3.55;3.15;;;;;;;;;;4961839;29;20673;-87
2023/11/26 13:56:08;;;;;;;3.72;3.33;;;;;;;;;;4961887;29;20696;-87
2023/11/26 13:58:36;;;;;;;5.20;3.75;;;;;;;;;;4961832;29;20552;-87
2023/11/26 14:01:03;;;;;;;2.90;2.65;;;;;;;;;;4960050;29;20232;-87
2023/11/26 14:03:30;;;;;;;7.93;2.95;;;;;;;;;;4960792;29;20230;-87
2023/11/26 14:05:57;;;;;;;4.95;4.22;;;;;;;;;;4961936;29;20261;-88
2023/11/26 14:08:26;;;;;;;2.90;2.20;;;;;;;;;;4962140;29;20202;-86
2023/11/26 14:10:53;;;;;;;3.65;2.53;;;;;;;;;;4962039;29;20317;-87
2023/11/26 14:13:21;;;;;;;4.78;2.33;;;;;;;;;;4961852;29;20228;-87
2023/11/26 14:15:51;;;;;;;2.40;2.20;;;;;;;;;;4960696;29;20210;-86
2023/11/26 14:18:19;;;;;;;12.32;7.50;;;;;;;;;;4962463;29;20206;-87
2023/11/26 14:20:46;;;;;;;8.38;4.43;;;;;;;;;;4961197;29;20233;-87
2023/11/26 14:23:13;;;;;;;2.55;2.35;;;;;;;;;;4961919;29;20210;-86
2023/11/26 14:25:43;;;;;;;4.40;2.30;;;1.40;1.00;;;;;;4963308;29;20202;-86
2023/11/26 14:28:10;;;;;;;3.40;3.08;;;;;;;;;;4966586;29;20209;-86
2023/11/26 14:30:37;;;;;;;6.80;2.22;;;;;;;;;;4976556;29;20248;-87
2023/11/26 14:33:04;;;;;;;5.70;3.00;;;;;;;;;;4975202;29;20218;-86
2023/11/26 14:35:32;;;;;;;2.85;2.20;;;;;;;;;;4978169;29;20237;-84
2023/11/26 14:37:59;;;;;;;4.25;3.58;;;;;;;;;;4979054;28;20213;-85
2023/11/26 14:40:27;;;;;;;3.25;2.92;;;;;;;;;;4979604;28;20290;-86
2023/11/26 14:42:55;;;;;;;4.13;2.95;;;1.30;1.00;;;;;;4979670;28;20190;-87
2023/11/26 14:45:23;;;;;;;3.47;2.45;;;;;;;;;;4979580;28;20201;-85
2023/11/26 14:47:51;;;;;;;6.03;3.92;;;;;;;;;;4978968;29;20178;-87
2023/11/26 14:50:18;;;;;;;2.85;2.55;;;;;;;;;;4977401;29;20222;-86
2023/11/26 14:52:46;;;;;;;4.00;2.40;;;;;;;;;;4976066;29;20198;-87
2023/11/26 14:55:15;;;;;;;5.00;2.00;;;1.30;1.00;;;;;;4973070;29;20245;-88
2023/11/26 14:57:42;;;;;;;2.85;2.65;;;1.20;1.00;;;;;;4968943;29;20202;-88
2023/11/26 15:00:11;;;;;;;4.82;2.28;;;1.20;1.00;;;;;;4966255;28;20285;-88
2023/11/26 15:02:39;;;;;;;2.60;2.40;;;;;;;;;;4970333;29;20214;-84
2023/11/26 15:05:07;;;;;;;3.20;2.88;;;;;;;;;;4969499;29;20761;-87
2023/11/26 15:07:34;;;;;;;5.80;3.10;;;;;;;;;;4962483;29;20277;-85
2023/11/26 15:10:02;;;;;;;3.75;3.25;;;;;;;;;;4963518;29;20298;-85
2023/11/26 15:12:29;;;;;;;4.18;3.28;;;;;;;;;;4974162;28;20238;-85
2023/11/26 15:14:56;;;;;;;2.90;2.70;;;;;;;;;;4973343;29;20230;-87
2023/11/26 15:17:25;;;;;;;5.80;2.72;;;1.50;1.00;;;;;;4972275;29;20270;-87
2023/11/26 15:19:52;;;;;;;6.18;3.90;;;;;;;;;;4967158;29;20230;-86
2023/11/26 15:22:20;;;;;;;3.47;3.10;;;;;;;;;;4972535;29;20230;-86
2023/11/26 15:24:48;;;;;;;6.47;3.65;;;;;;;;;;4975951;29;20221;-87
2023/11/26 15:27:15;;;;;;;2.67;2.47;;;;;;;;;;4975063;29;20207;-87
2023/11/26 15:29:43;;;;;;;3.50;3.20;;;;;;;;;;4974834;29;20259;-86
2023/11/26 15:32:11;;;;;;;4.63;3.63;;;;;;;;;;4975071;28;20222;-86
2023/11/26 15:34:40;;;;;;;4.15;3.08;;;1.10;1.00;;;;;;4974032;29;20230;-87
2023/11/26 15:37:09;;;;;;;3.53;3.22;;;;;;;;;;4970846;29;20206;-87
2023/11/26 15:39:36;;;;;;;4.32;2.83;;;;;;;;;;4968301;29;20230;-87
2023/11/26 15:42:03;;;;;;;4.28;2.80;;;;;;;;;;4968062;29;20206;-86
2023/11/26 15:44:31;;;;;;;3.35;3.08;;;;;;;;;;4964166;29;20206;-87
2023/11/26 15:46:58;;;;;;;6.18;3.58;;;;;;;;;;4962265;29;20293;-87
2023/11/26 15:49:25;;;;;;;4.32;3.80;;;;;;;;;;4961165;29;20321;-86
2023/11/26 15:51:57;;;;;;;4.75;3.83;;;1.10;1.00;;;;;;4962145;29;20603;-86
2023/11/26 15:54:24;;;;;;;7.20;3.97;;;;;;;;;;4963285;29;20195;-86
2023/11/26 15:56:52;;;;;;;9.60;7.10;;;1.10;1.00;;;;;;4962924;28;20206;-85
2023/11/26 15:59:20;;;;;;;16.80;8.00;;;;;;;;;;4963413;29;20293;-86
2023/11/26 16:01:47;;;;;;;11.68;6.60;;;1.40;1.00;;;;;;4972218;29;20207;-84